createdAt,value
2018-07-05T00:03:09.689Z,16.90
2018-07-05T00:08:24.063Z,17.10
2018-07-05T00:11:03.809Z,17.00
2018-07-05T00:13:43.901Z,16.90
2018-07-05T00:16:24.805Z,16.80
2018-07-05T00:19:04.801Z,16.80
2018-07-05T00:21:44.876Z,16.60
2018-07-05T00:24:25.412Z,16.40
2018-07-05T00:27:05.433Z,16.30
2018-07-05T00:29:45.288Z,16.30
2018-07-05T00:34:59.082Z,16.40
2018-07-05T00:37:38.910Z,16.40
2018-07-05T00:40:18.863Z,16.50
2018-07-05T00:42:58.937Z,16.50
2018-07-05T00:45:38.878Z,16.50
2018-07-05T00:48:19.244Z,16.60
2018-07-05T00:50:59.400Z,16.40
2018-07-05T00:53:39.363Z,16.50
2018-07-05T00:56:19.468Z,16.50
2018-07-05T00:58:59.756Z,16.60
2018-07-05T01:01:40.079Z,16.60
2018-07-05T01:04:20.219Z,16.40
2018-07-05T01:09:34.645Z,16.50
2018-07-05T01:12:14.540Z,16.60
2018-07-05T01:17:28.412Z,16.20
2018-07-05T01:20:08.730Z,16.10
2018-07-05T01:22:48.799Z,15.90
2018-07-05T01:28:02.813Z,15.80
2018-07-05T01:30:42.870Z,15.70
2018-07-05T01:33:23.580Z,15.70
2018-07-05T01:36:03.996Z,15.70
2018-07-05T01:38:44.149Z,15.90
2018-07-05T01:41:24.879Z,16.00
2018-07-05T01:44:05.079Z,15.70
2018-07-05T01:46:45.431Z,15.30
2018-07-05T01:49:25.690Z,15.20
2018-07-05T01:52:10.141Z,15.30
2018-07-05T01:54:50.038Z,15.30
2018-07-05T02:00:05.340Z,15.40
2018-07-05T02:02:45.693Z,15.40
2018-07-05T02:08:01.236Z,15.30
2018-07-05T02:10:42.183Z,15.30
2018-07-05T02:13:22.361Z,15.40
2018-07-05T02:16:02.514Z,15.50
2018-07-05T02:18:43.390Z,15.50
2018-07-05T02:21:23.745Z,15.60
2018-07-05T02:24:03.790Z,15.70
2018-07-05T02:26:43.951Z,15.80
2018-07-05T02:29:24.105Z,15.80
2018-07-05T02:32:04.217Z,15.70
2018-07-05T02:37:24.362Z,15.50
2018-07-05T02:40:04.621Z,15.40
2018-07-05T02:42:44.674Z,15.30
2018-07-05T02:45:25.031Z,15.30
2018-07-05T02:48:05.081Z,15.40
2018-07-05T02:50:45.187Z,15.50
2018-07-05T02:55:59.611Z,15.40
2018-07-05T02:58:39.857Z,15.30
2018-07-05T03:01:19.850Z,15.30
2018-07-05T03:04:00.168Z,15.30
2018-07-05T03:06:40.434Z,15.30
2018-07-05T03:09:20.988Z,15.30
2018-07-05T03:12:01.142Z,14.80
2018-07-05T03:14:41.291Z,14.70
2018-07-05T03:17:21.553Z,14.70
2018-07-05T03:20:02.320Z,14.60
2018-07-05T03:22:42.580Z,14.50
2018-07-05T03:25:22.737Z,14.60
2018-07-05T03:28:02.891Z,14.80
2018-07-05T03:30:42.925Z,14.90
2018-07-05T03:33:22.990Z,14.80
2018-07-05T03:36:03.310Z,14.70
2018-07-05T03:38:43.606Z,14.40
2018-07-05T03:41:23.960Z,14.40
2018-07-05T03:44:04.889Z,14.50
2018-07-05T03:49:19.681Z,14.60
2018-07-05T03:51:59.771Z,14.70
2018-07-05T03:54:40.023Z,14.70
2018-07-05T03:57:20.178Z,14.70
2018-07-05T04:00:00.329Z,14.70
2018-07-05T04:02:40.612Z,14.80
2018-07-05T04:05:20.963Z,14.90
2018-07-05T04:08:01.160Z,14.90
2018-07-05T04:13:15.569Z,15.10
2018-07-05T04:15:55.665Z,14.90
2018-07-05T04:18:35.675Z,14.90
2018-07-05T04:21:16.495Z,14.90
2018-07-05T04:26:30.921Z,14.70
2018-07-05T04:29:11.769Z,14.60
2018-07-05T04:31:51.747Z,14.70
2018-07-05T04:34:31.992Z,14.70
2018-07-05T04:37:13.070Z,14.80
2018-07-05T04:39:53.221Z,14.80
2018-07-05T04:42:33.424Z,14.70
2018-07-05T04:45:13.741Z,14.70
2018-07-05T04:47:54.227Z,14.70
2018-07-05T04:50:34.620Z,14.80
2018-07-05T04:53:14.361Z,14.90
2018-07-05T04:55:54.559Z,14.90
2018-07-05T04:58:34.814Z,14.90
2018-07-05T05:01:15.480Z,14.90
2018-07-05T05:03:55.736Z,14.90
2018-07-05T05:06:35.536Z,14.90
2018-07-05T05:11:50.356Z,14.90
2018-07-05T05:14:30.511Z,14.90
2018-07-05T05:17:10.714Z,15.00
2018-07-05T05:22:25.540Z,15.10
2018-07-05T05:25:05.704Z,15.10
2018-07-05T05:27:46.065Z,15.20
2018-07-05T05:30:26.315Z,15.30
2018-07-05T05:33:06.538Z,15.40
2018-07-05T05:35:46.581Z,15.50
2018-07-05T05:41:00.686Z,15.30
2018-07-05T05:43:40.721Z,15.40
2018-07-05T05:46:20.688Z,15.40
2018-07-05T05:51:35.111Z,15.50
2018-07-05T05:56:49.631Z,15.70
2018-07-05T05:59:29.790Z,15.90
2018-07-05T06:02:09.995Z,16.00
2018-07-05T06:07:24.203Z,16.20
2018-07-05T06:10:04.459Z,16.30
2018-07-05T06:12:44.721Z,16.30
2018-07-05T06:15:24.673Z,16.40
2018-07-05T06:18:04.686Z,16.50
2018-07-05T06:20:44.507Z,16.50
2018-07-05T06:23:24.616Z,16.60
2018-07-05T06:26:04.977Z,16.70
2018-07-05T06:28:44.943Z,16.80
2018-07-05T06:31:25.240Z,16.90
2018-07-05T06:34:05.278Z,17.00
2018-07-05T06:36:45.111Z,17.00
2018-07-05T06:39:25.195Z,17.10
2018-07-05T06:42:05.388Z,17.20
2018-07-05T06:44:45.649Z,17.30
2018-07-05T06:47:25.503Z,17.40
2018-07-05T06:50:05.391Z,17.50
2018-07-05T06:55:19.498Z,17.70
2018-07-05T06:57:59.661Z,17.80
2018-07-05T07:00:39.808Z,17.90
2018-07-05T07:03:19.814Z,18.00
2018-07-05T07:08:34.502Z,18.30
2018-07-05T07:11:14.636Z,18.30
2018-07-05T07:16:28.803Z,18.40
2018-07-05T07:21:43.530Z,18.60
2018-07-05T07:24:23.385Z,18.70
2018-07-05T07:27:03.387Z,18.70
2018-07-05T07:32:17.489Z,18.90
2018-07-05T07:34:58.332Z,19.00
2018-07-05T07:37:38.601Z,19.00
2018-07-05T07:40:18.568Z,19.00
2018-07-05T07:42:46.291Z,19.10
2018-07-05T07:47:41.681Z,19.30
2018-07-05T07:50:09.235Z,19.30
2018-07-05T07:52:36.788Z,19.30
2018-07-05T07:55:04.343Z,19.40
2018-07-05T07:57:31.862Z,19.60
2018-07-05T07:59:59.415Z,19.60
2018-07-05T08:02:26.960Z,19.70
2018-07-05T08:07:23.150Z,19.90
2018-07-05T08:09:50.691Z,20.00
2018-07-05T08:12:18.235Z,20.10
2018-07-05T08:14:46.589Z,20.20
2018-07-05T08:17:14.207Z,20.30
2018-07-05T08:19:41.757Z,20.40
2018-07-05T08:22:09.315Z,20.50
2018-07-05T08:24:37.731Z,20.60
2018-07-05T08:27:05.270Z,20.60
2018-07-05T08:29:32.790Z,20.80
2018-07-05T08:32:01.016Z,20.80
2018-07-05T08:34:28.529Z,20.90
2018-07-05T08:36:56.092Z,21.00
2018-07-05T08:39:23.628Z,21.10
2018-07-05T08:41:51.217Z,21.20
2018-07-05T08:44:18.768Z,21.30
2018-07-05T08:46:46.852Z,21.50
2018-07-05T08:49:14.440Z,21.60
2018-07-05T08:51:41.986Z,21.60
2018-07-05T08:54:10.489Z,21.80
2018-07-05T08:56:38.041Z,22.00
2018-07-05T08:59:05.581Z,22.10
2018-07-05T09:01:33.173Z,22.10
2018-07-05T09:04:00.726Z,22.10
2018-07-05T09:06:28.290Z,22.10
2018-07-05T09:08:55.811Z,22.10
2018-07-05T09:11:23.445Z,22.10
2018-07-05T09:13:51.374Z,22.30
2018-07-05T09:16:18.921Z,22.40
2018-07-05T09:18:46.490Z,22.50
2018-07-05T09:21:14.064Z,22.50
2018-07-05T09:26:09.446Z,22.40
2018-07-05T09:28:36.992Z,22.50
2018-07-05T09:31:04.540Z,22.60
2018-07-05T09:33:32.389Z,22.70
2018-07-05T09:36:00.451Z,22.90
2018-07-05T09:38:28.146Z,23.00
2018-07-05T09:40:56.529Z,23.10
2018-07-05T09:43:24.790Z,23.10
2018-07-05T09:45:52.324Z,23.30
2018-07-05T09:48:19.870Z,23.50
2018-07-05T09:50:47.479Z,23.50
2018-07-05T09:53:15.001Z,23.70
2018-07-05T09:55:42.551Z,23.90
2018-07-05T10:00:43.941Z,24.00
2018-07-05T10:03:11.501Z,24.10
2018-07-05T10:05:39.825Z,24.30
2018-07-05T10:08:07.566Z,24.50
2018-07-05T10:10:35.607Z,24.60
2018-07-05T10:13:03.221Z,24.70
2018-07-05T10:15:30.742Z,24.80
2018-07-05T10:17:58.276Z,24.90
2018-07-05T10:20:26.153Z,24.90
2018-07-05T10:22:53.671Z,24.80
2018-07-05T10:25:21.230Z,24.70
2018-07-05T10:30:30.152Z,24.60
2018-07-05T10:33:10.381Z,24.50
2018-07-05T10:35:37.910Z,24.40
2018-07-05T10:38:06.087Z,24.30
2018-07-05T10:40:46.173Z,24.30
2018-07-05T10:43:26.101Z,24.20
2018-07-05T10:46:06.245Z,24.10
2018-07-05T10:48:46.181Z,24.10
2018-07-05T10:51:26.341Z,24.10
2018-07-05T10:54:06.526Z,24.10
2018-07-05T10:56:46.379Z,24.10
2018-07-05T10:59:26.326Z,24.10
2018-07-05T11:02:06.255Z,24.10
2018-07-05T11:04:46.148Z,24.10
2018-07-05T11:07:26.244Z,24.10
2018-07-05T11:10:07.890Z,24.10
2018-07-05T11:12:47.900Z,24.20
2018-07-05T11:15:28.070Z,24.20
2018-07-05T11:18:08.151Z,24.30
2018-07-05T11:20:48.189Z,24.40
2018-07-05T11:23:28.190Z,24.40
2018-07-05T11:26:08.375Z,24.50
2018-07-05T11:28:48.640Z,24.60
2018-07-05T11:31:28.569Z,24.60
2018-07-05T11:34:08.311Z,24.80
2018-07-05T11:36:48.484Z,25.00
2018-07-05T11:39:28.430Z,25.10
2018-07-05T11:42:08.421Z,25.30
2018-07-05T11:44:48.200Z,25.40
2018-07-05T11:47:27.994Z,25.60
2018-07-05T11:50:07.961Z,25.80
2018-07-05T11:52:47.948Z,25.90
2018-07-05T11:55:27.781Z,26.00
2018-07-05T11:58:08.048Z,26.10
2018-07-05T12:00:48.229Z,26.20
2018-07-05T12:03:28.251Z,26.20
2018-07-05T12:06:08.619Z,26.30
2018-07-05T12:08:48.657Z,26.50
2018-07-05T12:11:28.533Z,26.50
2018-07-05T12:14:09.226Z,26.50
2018-07-05T12:16:49.261Z,26.40
2018-07-05T12:19:29.185Z,26.40
2018-07-05T12:22:09.282Z,26.50
2018-07-05T12:24:49.144Z,26.50
2018-07-05T12:27:28.929Z,26.50
2018-07-05T12:30:09.617Z,26.40
2018-07-05T12:32:49.481Z,26.30
2018-07-05T12:35:29.356Z,26.40
2018-07-05T12:38:09.166Z,26.50
2018-07-05T12:40:49.121Z,26.60
2018-07-05T12:43:29.264Z,26.70
2018-07-05T12:46:09.281Z,27.00
2018-07-05T12:48:49.245Z,27.20
2018-07-05T12:51:29.257Z,27.50
2018-07-05T12:56:43.142Z,27.80
2018-07-05T12:59:24.293Z,27.90
2018-07-05T13:02:04.330Z,27.90
2018-07-05T13:04:44.260Z,27.90
2018-07-05T13:07:24.360Z,27.90
2018-07-05T13:10:04.451Z,28.00
2018-07-05T13:12:44.439Z,28.10
2018-07-05T13:15:25.151Z,28.20
2018-07-05T13:18:05.035Z,28.20
2018-07-05T13:20:45.519Z,28.20
2018-07-05T13:23:25.571Z,28.40
2018-07-05T13:26:05.340Z,28.50
2018-07-05T13:28:45.248Z,28.50
2018-07-05T13:31:25.147Z,28.60
2018-07-05T13:34:04.992Z,28.70
2018-07-05T13:36:45.222Z,28.70
2018-07-05T13:41:58.991Z,28.80
2018-07-05T13:44:39.078Z,28.80
2018-07-05T13:47:19.438Z,28.80
2018-07-05T13:49:59.480Z,28.80
2018-07-05T13:52:39.361Z,28.80
2018-07-05T13:55:19.274Z,28.90
2018-07-05T13:57:59.342Z,28.70
2018-07-05T14:00:39.704Z,28.70
2018-07-05T14:03:19.849Z,28.60
2018-07-05T14:06:00.671Z,28.60
2018-07-05T14:08:40.632Z,28.60
2018-07-05T14:11:20.618Z,28.60
2018-07-05T14:14:00.849Z,28.50
2018-07-05T14:16:40.688Z,28.50
2018-07-05T14:19:20.785Z,28.30
2018-07-05T14:22:01.831Z,28.30
2018-07-05T14:24:42.000Z,28.20
2018-07-05T14:27:22.124Z,27.70
2018-07-05T14:30:02.207Z,27.40
2018-07-05T14:32:42.376Z,26.80
2018-07-05T14:35:22.724Z,26.20
2018-07-05T14:38:02.986Z,25.90
2018-07-05T14:40:43.034Z,25.70
2018-07-05T14:43:23.701Z,25.40
2018-07-05T14:46:03.699Z,25.10
2018-07-05T14:48:43.609Z,24.80
2018-07-05T14:51:23.539Z,24.40
2018-07-05T14:54:03.432Z,24.30
2018-07-05T14:56:43.419Z,23.70
2018-07-05T14:59:24.125Z,23.40
2018-07-05T15:02:04.158Z,23.00
2018-07-05T15:04:44.259Z,22.80
2018-07-05T15:09:58.131Z,22.70
2018-07-05T15:15:13.333Z,23.00
2018-07-05T15:17:53.579Z,22.90
2018-07-05T15:20:33.567Z,22.60
2018-07-05T15:23:13.942Z,22.30
2018-07-05T15:25:54.077Z,22.10
2018-07-05T15:28:34.752Z,21.80
2018-07-05T15:31:15.110Z,21.70
2018-07-05T15:33:55.162Z,21.70
2018-07-05T15:36:35.415Z,21.60
2018-07-05T15:39:15.881Z,21.60
2018-07-05T15:41:56.132Z,21.40
2018-07-05T15:44:36.282Z,21.30
2018-07-05T15:47:16.336Z,21.10
2018-07-05T15:49:57.207Z,20.80
2018-07-05T15:52:37.464Z,20.70
2018-07-05T15:55:17.632Z,20.30
2018-07-05T15:57:57.671Z,20.10
2018-07-05T16:00:37.723Z,20.00
2018-07-05T16:03:17.876Z,19.90
2018-07-05T16:05:58.042Z,19.90
2018-07-05T16:08:39.103Z,20.10
2018-07-05T16:11:19.409Z,20.10
2018-07-05T16:14:00.084Z,20.20
2018-07-05T16:19:14.100Z,19.70
2018-07-05T16:21:54.251Z,19.60
2018-07-05T16:24:34.407Z,19.70
2018-07-05T16:27:14.642Z,19.80
2018-07-05T16:29:55.424Z,19.90
2018-07-05T16:32:35.682Z,19.80
2018-07-05T16:35:15.829Z,19.90
2018-07-05T16:37:55.740Z,19.90
2018-07-05T16:40:35.934Z,19.80
2018-07-05T16:43:15.981Z,19.80
2018-07-05T16:45:55.907Z,20.10
2018-07-05T16:48:35.801Z,20.30
2018-07-05T16:51:15.719Z,20.50
2018-07-05T16:53:56.405Z,20.70
2018-07-05T16:56:36.656Z,20.80
2018-07-05T16:59:16.907Z,21.10
2018-07-05T17:01:57.781Z,21.50
2018-07-05T17:04:38.040Z,21.20
2018-07-05T17:07:18.362Z,21.30
2018-07-05T17:09:59.233Z,21.50
2018-07-05T17:12:39.322Z,21.50
2018-07-05T17:15:19.546Z,21.40
2018-07-05T17:17:59.705Z,21.00
2018-07-05T17:20:40.008Z,21.00
2018-07-05T17:23:20.245Z,21.00
2018-07-05T17:26:00.249Z,21.00
2018-07-05T17:31:15.077Z,21.00
2018-07-05T17:33:55.126Z,21.10
2018-07-05T17:36:35.081Z,20.90
2018-07-05T17:39:15.190Z,20.70
2018-07-05T17:41:55.482Z,20.50
2018-07-05T17:44:35.840Z,20.40
2018-07-05T17:47:15.742Z,20.30
2018-07-05T17:52:30.056Z,20.00
2018-07-05T17:55:10.873Z,20.00
2018-07-05T18:00:25.096Z,20.20
2018-07-05T18:03:05.347Z,20.20
2018-07-05T18:05:45.369Z,20.20
2018-07-05T18:08:25.282Z,20.30
2018-07-05T18:11:06.080Z,20.40
2018-07-05T18:13:46.211Z,20.50
2018-07-05T18:19:00.570Z,20.50
2018-07-05T18:21:40.747Z,20.60
2018-07-05T18:26:54.760Z,20.70
2018-07-05T18:29:34.911Z,20.60
2018-07-05T18:32:15.509Z,20.60
2018-07-05T18:34:55.338Z,20.50
2018-07-05T18:37:35.574Z,20.40
2018-07-05T18:40:16.306Z,20.50
2018-07-05T18:42:56.311Z,20.60
2018-07-05T18:45:36.181Z,20.60
2018-07-05T18:50:50.256Z,20.70
2018-07-05T18:56:04.081Z,20.70
2018-07-05T18:58:44.111Z,20.70
2018-07-05T19:01:24.351Z,20.60
2018-07-05T19:04:04.479Z,20.60
2018-07-05T19:06:44.620Z,20.70
2018-07-05T19:11:58.836Z,20.70
2018-07-05T19:14:39.852Z,20.60
2018-07-05T19:17:19.854Z,20.60
2018-07-05T19:19:59.787Z,20.60
2018-07-05T19:22:39.981Z,20.50
2018-07-05T19:25:20.630Z,20.50
2018-07-05T19:28:00.504Z,20.60
2018-07-05T19:30:40.547Z,20.60
2018-07-05T19:33:20.568Z,20.60
2018-07-05T19:36:00.701Z,20.40
2018-07-05T19:38:40.701Z,20.50
2018-07-05T19:41:20.638Z,20.50
2018-07-05T19:44:00.567Z,20.50
2018-07-05T19:46:40.846Z,20.50
2018-07-05T19:49:20.565Z,20.50
2018-07-05T19:52:00.540Z,20.60
2018-07-05T19:54:40.356Z,20.50
2018-07-05T19:57:20.115Z,20.50
2018-07-05T20:00:00.206Z,20.60
2018-07-05T20:02:40.129Z,20.60
2018-07-05T20:05:20.149Z,20.60
2018-07-05T20:08:00.187Z,20.50
2018-07-05T20:13:14.748Z,20.40
2018-07-05T20:15:54.671Z,20.30
2018-07-05T20:18:34.582Z,20.30
2018-07-05T20:21:14.474Z,20.20
2018-07-05T20:23:55.591Z,20.20
2018-07-05T20:26:35.531Z,20.10
2018-07-05T20:31:49.885Z,19.60
2018-07-05T20:34:29.840Z,19.50
2018-07-05T20:39:43.978Z,19.30
2018-07-05T20:42:23.842Z,19.50
2018-07-05T20:45:05.029Z,19.40
2018-07-05T20:50:19.001Z,19.50
2018-07-05T20:52:58.903Z,19.50
2018-07-05T20:55:38.943Z,19.30
2018-07-05T20:58:18.969Z,19.20
2018-07-05T21:00:59.023Z,19.00
2018-07-05T21:03:38.997Z,18.80
2018-07-05T21:06:19.041Z,18.70
2018-07-05T21:08:59.926Z,18.50
2018-07-05T21:11:39.814Z,18.50
2018-07-05T21:16:53.712Z,18.60
2018-07-05T21:19:33.557Z,18.70
2018-07-05T21:22:13.718Z,18.60
2018-07-05T21:24:54.159Z,18.80
2018-07-05T21:27:34.017Z,18.90
2018-07-05T21:30:14.485Z,18.80
2018-07-05T21:32:54.440Z,18.80
2018-07-05T21:35:34.497Z,18.80
2018-07-05T21:38:14.446Z,18.40
2018-07-05T21:40:54.489Z,18.40
2018-07-05T21:43:35.221Z,18.30
2018-07-05T21:46:15.512Z,18.30
2018-07-05T21:48:56.510Z,18.20
2018-07-05T21:51:36.407Z,18.10
2018-07-05T21:54:16.252Z,18.10
2018-07-05T21:56:56.283Z,18.10
2018-07-05T22:02:10.159Z,18.20
2018-07-05T22:04:50.274Z,18.10
2018-07-05T22:07:30.241Z,18.00
2018-07-05T22:10:10.250Z,17.90
2018-07-05T22:12:50.241Z,17.90
2018-07-05T22:18:09.390Z,18.00
2018-07-05T22:20:54.681Z,18.10
2018-07-05T22:24:42.035Z,17.90
2018-07-05T22:30:06.627Z,18.00
2018-07-05T22:32:46.929Z,18.00
2018-07-05T22:35:26.903Z,18.10
2018-07-05T22:38:06.728Z,17.90
2018-07-05T22:40:46.790Z,17.90
2018-07-05T22:43:26.904Z,18.00
2018-07-05T22:51:14.710Z,18.00
2018-07-05T22:53:54.700Z,18.00
2018-07-05T22:56:34.808Z,18.10
2018-07-05T22:59:14.780Z,18.00
2018-07-05T23:01:54.721Z,17.90
2018-07-05T23:04:34.515Z,17.80
2018-07-05T23:09:48.417Z,17.60
2018-07-05T23:12:28.468Z,17.50
2018-07-05T23:15:08.318Z,17.50
2018-07-05T23:17:48.473Z,17.40
2018-07-05T23:20:28.463Z,17.40
2018-07-05T23:23:09.199Z,17.40
2018-07-05T23:25:49.140Z,17.40
2018-07-05T23:28:29.706Z,17.60
2018-07-05T23:31:09.553Z,17.60
2018-07-05T23:33:49.600Z,17.70
2018-07-05T23:36:29.602Z,17.70
2018-07-05T23:41:44.721Z,17.70
2018-07-05T23:44:24.692Z,17.80
2018-07-05T23:47:04.581Z,17.80
2018-07-05T23:49:44.541Z,17.80
2018-07-05T23:52:25.118Z,17.70
2018-07-05T23:55:06.344Z,17.70
2018-07-05T23:57:46.230Z,17.60
